sensor_id;sensor_type;location;lat;lon;timestamp;P1;durP1;ratioP1;P2;durP2;ratioP2
13445;SDS011;6795;51.232;3.764;2022-12-10T00:01:44;616.73;;;105.73;;
13445;SDS011;6795;51.232;3.764;2022-12-10T00:04:14;678.97;;;111.43;;
13445;SDS011;6795;51.232;3.764;2022-12-10T00:06:42;729.67;;;108.40;;
13445;SDS011;6795;51.232;3.764;2022-12-10T00:09:12;660.77;;;98.30;;
13445;SDS011;6795;51.232;3.764;2022-12-10T00:11:41;582.13;;;100.60;;
13445;SDS011;6795;51.232;3.764;2022-12-10T00:14:11;527.50;;;98.53;;
13445;SDS011;6795;51.232;3.764;2022-12-10T00:16:41;542.63;;;96.50;;
13445;SDS011;6795;51.232;3.764;2022-12-10T00:19:10;586.33;;;104.27;;
13445;SDS011;6795;51.232;3.764;2022-12-10T00:21:39;612.40;;;103.90;;
13445;SDS011;6795;51.232;3.764;2022-12-10T00:24:08;580.93;;;103.80;;
13445;SDS011;6795;51.232;3.764;2022-12-10T00:26:37;543.13;;;97.33;;
13445;SDS011;6795;51.232;3.764;2022-12-10T00:29:07;627.60;;;109.13;;
13445;SDS011;6795;51.232;3.764;2022-12-10T00:31:38;568.60;;;104.77;;
13445;SDS011;6795;51.232;3.764;2022-12-10T00:34:09;633.00;;;110.37;;
13445;SDS011;6795;51.232;3.764;2022-12-10T00:36:39;592.97;;;110.37;;
13445;SDS011;6795;51.232;3.764;2022-12-10T00:39:11;627.80;;;110.47;;
13445;SDS011;6795;51.232;3.764;2022-12-10T00:41:41;640.20;;;114.67;;
13445;SDS011;6795;51.232;3.764;2022-12-10T00:44:10;657.47;;;109.20;;
13445;SDS011;6795;51.232;3.764;2022-12-10T00:46:38;651.73;;;105.87;;
13445;SDS011;6795;51.232;3.764;2022-12-10T00:49:09;605.40;;;101.60;;
13445;SDS011;6795;51.232;3.764;2022-12-10T00:51:37;761.47;;;106.23;;
13445;SDS011;6795;51.232;3.764;2022-12-10T00:54:06;753.13;;;109.43;;
13445;SDS011;6795;51.232;3.764;2022-12-10T00:56:36;836.07;;;120.83;;
13445;SDS011;6795;51.232;3.764;2022-12-10T00:59:04;655.27;;;103.53;;
13445;SDS011;6795;51.232;3.764;2022-12-10T01:01:33;576.53;;;105.17;;
13445;SDS011;6795;51.232;3.764;2022-12-10T01:04:04;673.33;;;109.03;;
13445;SDS011;6795;51.232;3.764;2022-12-10T01:06:36;695.47;;;111.83;;
13445;SDS011;6795;51.232;3.764;2022-12-10T01:09:10;552.20;;;100.07;;
13445;SDS011;6795;51.232;3.764;2022-12-10T01:11:41;655.03;;;108.73;;
13445;SDS011;6795;51.232;3.764;2022-12-10T01:14:11;717.00;;;106.20;;
13445;SDS011;6795;51.232;3.764;2022-12-10T01:16:41;657.83;;;107.43;;
13445;SDS011;6795;51.232;3.764;2022-12-10T01:19:09;479.67;;;89.40;;
13445;SDS011;6795;51.232;3.764;2022-12-10T01:21:40;557.70;;;95.57;;
13445;SDS011;6795;51.232;3.764;2022-12-10T01:24:08;595.27;;;95.30;;
13445;SDS011;6795;51.232;3.764;2022-12-10T01:26:37;557.53;;;96.43;;
13445;SDS011;6795;51.232;3.764;2022-12-10T01:29:06;470.10;;;82.20;;
13445;SDS011;6795;51.232;3.764;2022-12-10T01:31:35;506.60;;;95.50;;
13445;SDS011;6795;51.232;3.764;2022-12-10T01:34:05;550.43;;;90.60;;
13445;SDS011;6795;51.232;3.764;2022-12-10T01:36:35;503.77;;;85.10;;
13445;SDS011;6795;51.232;3.764;2022-12-10T01:39:07;553.10;;;89.47;;
13445;SDS011;6795;51.232;3.764;2022-12-10T01:41:38;538.47;;;85.17;;
13445;SDS011;6795;51.232;3.764;2022-12-10T01:47:10;475.47;;;75.60;;
13445;SDS011;6795;51.232;3.764;2022-12-10T01:49:39;530.40;;;89.73;;
13445;SDS011;6795;51.232;3.764;2022-12-10T01:52:09;564.03;;;91.30;;
13445;SDS011;6795;51.232;3.764;2022-12-10T01:54:41;546.20;;;90.87;;
13445;SDS011;6795;51.232;3.764;2022-12-10T01:57:11;600.63;;;93.90;;
13445;SDS011;6795;51.232;3.764;2022-12-10T01:59:42;656.13;;;94.07;;
13445;SDS011;6795;51.232;3.764;2022-12-10T02:02:14;492.43;;;87.27;;
13445;SDS011;6795;51.232;3.764;2022-12-10T02:04:56;470.33;;;89.20;;
13445;SDS011;6795;51.232;3.764;2022-12-10T02:07:38;491.80;;;90.47;;
13445;SDS011;6795;51.232;3.764;2022-12-10T02:10:22;706.83;;;105.33;;
13445;SDS011;6795;51.232;3.764;2022-12-10T02:13:08;719.80;;;100.83;;
13445;SDS011;6795;51.232;3.764;2022-12-10T02:15:44;713.33;;;105.50;;
13445;SDS011;6795;51.232;3.764;2022-12-10T02:18:19;558.77;;;99.67;;
13445;SDS011;6795;51.232;3.764;2022-12-10T02:20:52;689.60;;;98.27;;
13445;SDS011;6795;51.232;3.764;2022-12-10T02:23:24;592.33;;;98.90;;
13445;SDS011;6795;51.232;3.764;2022-12-10T02:25:58;740.23;;;103.03;;
13445;SDS011;6795;51.232;3.764;2022-12-10T02:28:31;715.57;;;108.00;;
13445;SDS011;6795;51.232;3.764;2022-12-10T02:31:07;599.80;;;94.23;;
13445;SDS011;6795;51.232;3.764;2022-12-10T02:33:42;486.13;;;86.20;;
13445;SDS011;6795;51.232;3.764;2022-12-10T02:36:13;668.67;;;97.03;;
13445;SDS011;6795;51.232;3.764;2022-12-10T02:38:42;600.67;;;103.83;;
13445;SDS011;6795;51.232;3.764;2022-12-10T02:41:13;553.40;;;94.00;;
13445;SDS011;6795;51.232;3.764;2022-12-10T02:43:46;686.60;;;100.40;;
13445;SDS011;6795;51.232;3.764;2022-12-10T02:46:18;584.13;;;96.63;;
13445;SDS011;6795;51.232;3.764;2022-12-10T02:48:48;587.37;;;97.67;;
13445;SDS011;6795;51.232;3.764;2022-12-10T02:51:17;570.00;;;91.03;;
13445;SDS011;6795;51.232;3.764;2022-12-10T02:53:46;518.67;;;90.70;;
13445;SDS011;6795;51.232;3.764;2022-12-10T02:56:24;515.10;;;89.57;;
13445;SDS011;6795;51.232;3.764;2022-12-10T02:58:59;517.23;;;84.63;;
13445;SDS011;6795;51.232;3.764;2022-12-10T03:01:37;529.97;;;87.23;;
13445;SDS011;6795;51.232;3.764;2022-12-10T03:04:13;487.67;;;86.30;;
13445;SDS011;6795;51.232;3.764;2022-12-10T03:06:46;449.63;;;85.27;;
13445;SDS011;6795;51.232;3.764;2022-12-10T03:09:20;479.13;;;86.83;;
13445;SDS011;6795;51.232;3.764;2022-12-10T03:11:52;509.63;;;90.43;;
13445;SDS011;6795;51.232;3.764;2022-12-10T03:14:27;518.37;;;91.00;;
13445;SDS011;6795;51.232;3.764;2022-12-10T03:16:58;488.43;;;86.13;;
13445;SDS011;6795;51.232;3.764;2022-12-10T03:19:30;453.57;;;80.67;;
13445;SDS011;6795;51.232;3.764;2022-12-10T03:22:03;455.97;;;81.63;;
13445;SDS011;6795;51.232;3.764;2022-12-10T03:24:34;440.80;;;76.47;;
13445;SDS011;6795;51.232;3.764;2022-12-10T03:27:04;437.93;;;80.50;;
13445;SDS011;6795;51.232;3.764;2022-12-10T03:29:36;619.87;;;99.10;;
13445;SDS011;6795;51.232;3.764;2022-12-10T03:32:06;602.10;;;94.13;;
13445;SDS011;6795;51.232;3.764;2022-12-10T03:34:35;624.63;;;100.83;;
13445;SDS011;6795;51.232;3.764;2022-12-10T03:37:04;525.27;;;89.77;;
13445;SDS011;6795;51.232;3.764;2022-12-10T03:39:33;559.63;;;94.50;;
13445;SDS011;6795;51.232;3.764;2022-12-10T03:42:03;485.77;;;87.40;;
13445;SDS011;6795;51.232;3.764;2022-12-10T03:44:32;558.70;;;93.43;;
13445;SDS011;6795;51.232;3.764;2022-12-10T03:47:07;545.57;;;90.07;;
13445;SDS011;6795;51.232;3.764;2022-12-10T03:49:38;601.43;;;98.70;;
13445;SDS011;6795;51.232;3.764;2022-12-10T03:52:07;569.97;;;99.20;;
13445;SDS011;6795;51.232;3.764;2022-12-10T03:54:35;537.83;;;94.60;;
13445;SDS011;6795;51.232;3.764;2022-12-10T03:57:04;644.33;;;100.37;;
13445;SDS011;6795;51.232;3.764;2022-12-10T03:59:32;699.47;;;108.00;;
13445;SDS011;6795;51.232;3.764;2022-12-10T04:02:02;615.30;;;98.73;;
13445;SDS011;6795;51.232;3.764;2022-12-10T04:04:31;512.70;;;90.00;;
13445;SDS011;6795;51.232;3.764;2022-12-10T04:06:59;535.67;;;91.90;;
13445;SDS011;6795;51.232;3.764;2022-12-10T04:09:28;614.90;;;99.70;;
13445;SDS011;6795;51.232;3.764;2022-12-10T04:11:57;550.67;;;94.37;;
13445;SDS011;6795;51.232;3.764;2022-12-10T04:14:26;604.73;;;99.03;;
13445;SDS011;6795;51.232;3.764;2022-12-10T04:17:14;419.97;;;80.57;;
13445;SDS011;6795;51.232;3.764;2022-12-10T04:19:42;584.33;;;93.60;;
13445;SDS011;6795;51.232;3.764;2022-12-10T04:22:11;503.10;;;87.50;;
13445;SDS011;6795;51.232;3.764;2022-12-10T04:24:57;593.47;;;96.17;;
13445;SDS011;6795;51.232;3.764;2022-12-10T04:27:48;549.97;;;93.70;;
13445;SDS011;6795;51.232;3.764;2022-12-10T04:30:16;501.23;;;82.27;;
13445;SDS011;6795;51.232;3.764;2022-12-10T04:32:46;525.80;;;85.83;;
13445;SDS011;6795;51.232;3.764;2022-12-10T04:35:14;559.57;;;91.60;;
13445;SDS011;6795;51.232;3.764;2022-12-10T04:37:43;577.33;;;92.93;;
13445;SDS011;6795;51.232;3.764;2022-12-10T04:40:11;494.10;;;86.07;;
13445;SDS011;6795;51.232;3.764;2022-12-10T04:42:40;544.60;;;91.13;;
13445;SDS011;6795;51.232;3.764;2022-12-10T04:45:09;452.10;;;82.10;;
13445;SDS011;6795;51.232;3.764;2022-12-10T04:47:37;477.83;;;84.73;;
13445;SDS011;6795;51.232;3.764;2022-12-10T04:50:07;613.40;;;93.93;;
13445;SDS011;6795;51.232;3.764;2022-12-10T04:52:36;493.70;;;82.47;;
13445;SDS011;6795;51.232;3.764;2022-12-10T04:55:05;614.30;;;92.97;;
13445;SDS011;6795;51.232;3.764;2022-12-10T04:57:34;529.73;;;86.20;;
13445;SDS011;6795;51.232;3.764;2022-12-10T05:00:03;451.97;;;77.73;;
13445;SDS011;6795;51.232;3.764;2022-12-10T05:02:32;454.53;;;77.00;;
13445;SDS011;6795;51.232;3.764;2022-12-10T05:05:01;542.67;;;85.10;;
13445;SDS011;6795;51.232;3.764;2022-12-10T05:07:30;613.37;;;88.83;;
13445;SDS011;6795;51.232;3.764;2022-12-10T05:10:00;553.07;;;89.10;;
13445;SDS011;6795;51.232;3.764;2022-12-10T05:12:29;599.80;;;95.00;;
13445;SDS011;6795;51.232;3.764;2022-12-10T05:14:57;558.97;;;88.43;;
13445;SDS011;6795;51.232;3.764;2022-12-10T05:17:25;634.47;;;91.00;;
13445;SDS011;6795;51.232;3.764;2022-12-10T05:19:54;601.77;;;86.27;;
13445;SDS011;6795;51.232;3.764;2022-12-10T05:22:22;598.27;;;87.47;;
13445;SDS011;6795;51.232;3.764;2022-12-10T05:25:09;617.33;;;91.10;;
13445;SDS011;6795;51.232;3.764;2022-12-10T05:27:38;493.47;;;78.93;;
13445;SDS011;6795;51.232;3.764;2022-12-10T05:30:07;566.70;;;87.93;;
13445;SDS011;6795;51.232;3.764;2022-12-10T05:32:37;681.30;;;95.73;;
13445;SDS011;6795;51.232;3.764;2022-12-10T05:35:05;617.37;;;92.57;;
13445;SDS011;6795;51.232;3.764;2022-12-10T05:37:34;610.67;;;90.80;;
13445;SDS011;6795;51.232;3.764;2022-12-10T05:40:04;642.90;;;90.33;;
13445;SDS011;6795;51.232;3.764;2022-12-10T05:42:35;582.27;;;89.33;;
13445;SDS011;6795;51.232;3.764;2022-12-10T05:45:04;549.37;;;80.80;;
13445;SDS011;6795;51.232;3.764;2022-12-10T05:47:34;536.17;;;79.30;;
13445;SDS011;6795;51.232;3.764;2022-12-10T05:50:02;564.73;;;86.90;;
13445;SDS011;6795;51.232;3.764;2022-12-10T05:52:32;552.30;;;82.90;;
13445;SDS011;6795;51.232;3.764;2022-12-10T05:55:00;490.80;;;77.23;;
13445;SDS011;6795;51.232;3.764;2022-12-10T05:57:29;512.60;;;76.27;;
13445;SDS011;6795;51.232;3.764;2022-12-10T05:59:58;399.07;;;69.87;;
13445;SDS011;6795;51.232;3.764;2022-12-10T06:02:27;554.60;;;82.80;;
13445;SDS011;6795;51.232;3.764;2022-12-10T06:04:55;519.40;;;81.10;;
13445;SDS011;6795;51.232;3.764;2022-12-10T06:07:24;541.23;;;79.10;;
13445;SDS011;6795;51.232;3.764;2022-12-10T06:09:52;604.83;;;90.03;;
13445;SDS011;6795;51.232;3.764;2022-12-10T06:12:21;518.30;;;78.20;;
13445;SDS011;6795;51.232;3.764;2022-12-10T06:14:49;482.97;;;77.40;;
13445;SDS011;6795;51.232;3.764;2022-12-10T06:17:19;574.07;;;86.37;;
13445;SDS011;6795;51.232;3.764;2022-12-10T06:19:47;547.53;;;82.77;;
13445;SDS011;6795;51.232;3.764;2022-12-10T06:22:16;565.73;;;85.13;;
13445;SDS011;6795;51.232;3.764;2022-12-10T06:24:45;536.33;;;81.17;;
13445;SDS011;6795;51.232;3.764;2022-12-10T06:27:13;579.17;;;82.50;;
13445;SDS011;6795;51.232;3.764;2022-12-10T06:29:41;502.97;;;79.47;;
13445;SDS011;6795;51.232;3.764;2022-12-10T06:32:10;445.50;;;75.33;;
13445;SDS011;6795;51.232;3.764;2022-12-10T06:34:39;491.77;;;81.47;;
13445;SDS011;6795;51.232;3.764;2022-12-10T06:37:08;446.30;;;76.60;;
13445;SDS011;6795;51.232;3.764;2022-12-10T06:39:37;472.17;;;79.77;;
13445;SDS011;6795;51.232;3.764;2022-12-10T06:42:05;480.00;;;79.07;;
13445;SDS011;6795;51.232;3.764;2022-12-10T06:44:34;493.07;;;78.47;;
13445;SDS011;6795;51.232;3.764;2022-12-10T06:47:03;505.30;;;83.67;;
13445;SDS011;6795;51.232;3.764;2022-12-10T06:49:31;471.40;;;80.37;;
13445;SDS011;6795;51.232;3.764;2022-12-10T06:52:01;551.00;;;85.97;;
13445;SDS011;6795;51.232;3.764;2022-12-10T06:54:30;527.33;;;85.30;;
13445;SDS011;6795;51.232;3.764;2022-12-10T06:56:59;393.27;;;73.83;;
13445;SDS011;6795;51.232;3.764;2022-12-10T06:59:27;479.77;;;83.97;;
13445;SDS011;6795;51.232;3.764;2022-12-10T07:01:56;490.50;;;86.37;;
13445;SDS011;6795;51.232;3.764;2022-12-10T07:04:24;515.30;;;88.37;;
13445;SDS011;6795;51.232;3.764;2022-12-10T07:06:53;529.37;;;85.53;;
13445;SDS011;6795;51.232;3.764;2022-12-10T07:09:23;478.67;;;85.70;;
13445;SDS011;6795;51.232;3.764;2022-12-10T07:11:51;373.97;;;72.03;;
13445;SDS011;6795;51.232;3.764;2022-12-10T07:14:20;444.67;;;80.83;;
13445;SDS011;6795;51.232;3.764;2022-12-10T07:16:48;464.53;;;79.40;;
13445;SDS011;6795;51.232;3.764;2022-12-10T07:19:17;491.70;;;81.73;;
13445;SDS011;6795;51.232;3.764;2022-12-10T07:21:45;468.07;;;79.23;;
13445;SDS011;6795;51.232;3.764;2022-12-10T07:24:15;485.93;;;78.27;;
13445;SDS011;6795;51.232;3.764;2022-12-10T07:26:45;413.63;;;74.67;;
13445;SDS011;6795;51.232;3.764;2022-12-10T07:29:15;447.80;;;76.37;;
13445;SDS011;6795;51.232;3.764;2022-12-10T07:31:45;386.17;;;70.17;;
13445;SDS011;6795;51.232;3.764;2022-12-10T07:34:15;456.20;;;76.50;;
13445;SDS011;6795;51.232;3.764;2022-12-10T07:36:43;452.47;;;76.53;;
13445;SDS011;6795;51.232;3.764;2022-12-10T07:39:12;410.47;;;71.27;;
13445;SDS011;6795;51.232;3.764;2022-12-10T07:41:46;482.63;;;78.43;;
13445;SDS011;6795;51.232;3.764;2022-12-10T07:44:16;443.70;;;70.93;;
13445;SDS011;6795;51.232;3.764;2022-12-10T07:46:47;488.60;;;76.97;;
13445;SDS011;6795;51.232;3.764;2022-12-10T07:49:16;443.80;;;72.97;;
13445;SDS011;6795;51.232;3.764;2022-12-10T07:51:45;529.80;;;84.30;;
13445;SDS011;6795;51.232;3.764;2022-12-10T07:54:14;396.23;;;73.10;;
13445;SDS011;6795;51.232;3.764;2022-12-10T07:56:43;461.37;;;73.77;;
13445;SDS011;6795;51.232;3.764;2022-12-10T07:59:13;460.60;;;76.23;;
13445;SDS011;6795;51.232;3.764;2022-12-10T08:01:42;380.20;;;72.60;;
13445;SDS011;6795;51.232;3.764;2022-12-10T08:04:10;352.73;;;68.40;;
13445;SDS011;6795;51.232;3.764;2022-12-10T08:06:39;385.93;;;70.60;;
13445;SDS011;6795;51.232;3.764;2022-12-10T08:09:08;319.63;;;67.03;;
13445;SDS011;6795;51.232;3.764;2022-12-10T08:11:38;432.17;;;75.60;;
13445;SDS011;6795;51.232;3.764;2022-12-10T08:14:08;441.57;;;75.60;;
13445;SDS011;6795;51.232;3.764;2022-12-10T08:16:36;537.37;;;84.07;;
13445;SDS011;6795;51.232;3.764;2022-12-10T08:19:04;410.17;;;71.07;;
13445;SDS011;6795;51.232;3.764;2022-12-10T08:21:33;447.80;;;73.93;;
13445;SDS011;6795;51.232;3.764;2022-12-10T08:24:01;420.27;;;77.77;;
13445;SDS011;6795;51.232;3.764;2022-12-10T08:26:30;428.03;;;73.70;;
13445;SDS011;6795;51.232;3.764;2022-12-10T08:29:00;467.67;;;77.70;;
13445;SDS011;6795;51.232;3.764;2022-12-10T08:31:30;378.37;;;70.20;;
13445;SDS011;6795;51.232;3.764;2022-12-10T08:34:03;541.47;;;87.03;;
13445;SDS011;6795;51.232;3.764;2022-12-10T08:36:32;447.73;;;79.53;;
13445;SDS011;6795;51.232;3.764;2022-12-10T08:39:01;475.03;;;78.43;;
13445;SDS011;6795;51.232;3.764;2022-12-10T08:41:29;469.73;;;78.57;;
13445;SDS011;6795;51.232;3.764;2022-12-10T08:43:58;458.70;;;82.43;;
13445;SDS011;6795;51.232;3.764;2022-12-10T08:46:26;394.53;;;78.50;;
13445;SDS011;6795;51.232;3.764;2022-12-10T08:48:56;392.40;;;75.13;;
13445;SDS011;6795;51.232;3.764;2022-12-10T08:51:25;403.70;;;77.67;;
13445;SDS011;6795;51.232;3.764;2022-12-10T08:53:54;381.33;;;75.63;;
13445;SDS011;6795;51.232;3.764;2022-12-10T08:56:23;459.80;;;82.33;;
13445;SDS011;6795;51.232;3.764;2022-12-10T08:58:51;484.03;;;84.97;;
13445;SDS011;6795;51.232;3.764;2022-12-10T09:01:20;503.77;;;91.70;;
13445;SDS011;6795;51.232;3.764;2022-12-10T09:03:48;488.83;;;86.53;;
13445;SDS011;6795;51.232;3.764;2022-12-10T09:06:20;506.23;;;89.93;;
13445;SDS011;6795;51.232;3.764;2022-12-10T09:08:51;454.07;;;83.53;;
13445;SDS011;6795;51.232;3.764;2022-12-10T09:11:21;414.73;;;86.80;;
13445;SDS011;6795;51.232;3.764;2022-12-10T09:13:52;316.60;;;80.17;;
13445;SDS011;6795;51.232;3.764;2022-12-10T09:16:20;357.57;;;83.30;;
13445;SDS011;6795;51.232;3.764;2022-12-10T09:18:49;402.37;;;90.60;;
13445;SDS011;6795;51.232;3.764;2022-12-10T09:21:19;394.43;;;88.33;;
13445;SDS011;6795;51.232;3.764;2022-12-10T09:23:47;298.13;;;80.27;;
13445;SDS011;6795;51.232;3.764;2022-12-10T09:26:18;331.03;;;84.20;;
13445;SDS011;6795;51.232;3.764;2022-12-10T09:28:48;312.27;;;84.70;;
13445;SDS011;6795;51.232;3.764;2022-12-10T09:31:17;313.37;;;85.17;;
13445;SDS011;6795;51.232;3.764;2022-12-10T09:33:48;309.40;;;82.63;;
13445;SDS011;6795;51.232;3.764;2022-12-10T09:36:20;335.07;;;86.43;;
13445;SDS011;6795;51.232;3.764;2022-12-10T09:38:55;322.77;;;86.37;;
13445;SDS011;6795;51.232;3.764;2022-12-10T09:41:31;261.27;;;78.73;;
13445;SDS011;6795;51.232;3.764;2022-12-10T09:44:32;287.47;;;82.47;;
13445;SDS011;6795;51.232;3.764;2022-12-10T09:47:11;294.33;;;82.70;;
13445;SDS011;6795;51.232;3.764;2022-12-10T09:49:44;281.93;;;81.10;;
13445;SDS011;6795;51.232;3.764;2022-12-10T09:52:22;277.80;;;76.40;;
13445;SDS011;6795;51.232;3.764;2022-12-10T09:54:55;260.13;;;77.17;;
13445;SDS011;6795;51.232;3.764;2022-12-10T09:57:25;264.33;;;80.80;;
13445;SDS011;6795;51.232;3.764;2022-12-10T09:59:58;258.70;;;78.50;;
13445;SDS011;6795;51.232;3.764;2022-12-10T10:02:29;250.00;;;75.60;;
13445;SDS011;6795;51.232;3.764;2022-12-10T10:05:01;268.27;;;78.67;;
13445;SDS011;6795;51.232;3.764;2022-12-10T10:07:41;234.93;;;75.87;;
13445;SDS011;6795;51.232;3.764;2022-12-10T10:10:18;226.07;;;72.10;;
13445;SDS011;6795;51.232;3.764;2022-12-10T10:12:51;239.93;;;75.33;;
13445;SDS011;6795;51.232;3.764;2022-12-10T10:15:24;262.10;;;78.93;;
13445;SDS011;6795;51.232;3.764;2022-12-10T10:17:57;228.80;;;73.20;;
13445;SDS011;6795;51.232;3.764;2022-12-10T10:20:26;230.27;;;73.00;;
13445;SDS011;6795;51.232;3.764;2022-12-10T10:22:56;198.73;;;65.07;;
13445;SDS011;6795;51.232;3.764;2022-12-10T10:25:27;204.57;;;67.10;;
13445;SDS011;6795;51.232;3.764;2022-12-10T10:27:56;211.30;;;70.30;;
13445;SDS011;6795;51.232;3.764;2022-12-10T10:30:24;198.63;;;70.83;;
13445;SDS011;6795;51.232;3.764;2022-12-10T10:32:53;212.13;;;71.57;;
13445;SDS011;6795;51.232;3.764;2022-12-10T10:35:28;210.80;;;71.93;;
13445;SDS011;6795;51.232;3.764;2022-12-10T10:38:01;216.73;;;71.23;;
13445;SDS011;6795;51.232;3.764;2022-12-10T10:40:39;216.37;;;72.60;;
13445;SDS011;6795;51.232;3.764;2022-12-10T10:43:12;230.73;;;73.30;;
13445;SDS011;6795;51.232;3.764;2022-12-10T10:45:47;236.40;;;73.00;;
13445;SDS011;6795;51.232;3.764;2022-12-10T10:48:18;247.13;;;75.27;;
13445;SDS011;6795;51.232;3.764;2022-12-10T10:50:48;243.57;;;72.77;;
13445;SDS011;6795;51.232;3.764;2022-12-10T10:53:24;223.40;;;66.83;;
13445;SDS011;6795;51.232;3.764;2022-12-10T10:56:07;214.17;;;66.77;;
13445;SDS011;6795;51.232;3.764;2022-12-10T10:58:44;235.23;;;70.73;;
13445;SDS011;6795;51.232;3.764;2022-12-10T11:01:17;241.53;;;71.93;;
13445;SDS011;6795;51.232;3.764;2022-12-10T11:03:47;224.70;;;70.33;;
13445;SDS011;6795;51.232;3.764;2022-12-10T11:06:17;236.80;;;72.53;;
13445;SDS011;6795;51.232;3.764;2022-12-10T11:08:46;225.67;;;71.53;;
13445;SDS011;6795;51.232;3.764;2022-12-10T11:11:18;222.13;;;69.23;;
13445;SDS011;6795;51.232;3.764;2022-12-10T11:13:48;208.33;;;66.87;;
13445;SDS011;6795;51.232;3.764;2022-12-10T11:16:18;187.80;;;64.17;;
13445;SDS011;6795;51.232;3.764;2022-12-10T11:18:52;184.67;;;60.60;;
13445;SDS011;6795;51.232;3.764;2022-12-10T11:21:25;190.57;;;62.47;;
13445;SDS011;6795;51.232;3.764;2022-12-10T11:23:53;216.87;;;65.47;;
13445;SDS011;6795;51.232;3.764;2022-12-10T11:26:33;203.53;;;64.83;;
13445;SDS011;6795;51.232;3.764;2022-12-10T11:29:14;203.13;;;64.93;;
13445;SDS011;6795;51.232;3.764;2022-12-10T11:31:56;210.03;;;66.10;;
13445;SDS011;6795;51.232;3.764;2022-12-10T11:34:43;192.27;;;64.23;;
13445;SDS011;6795;51.232;3.764;2022-12-10T11:37:24;184.53;;;62.63;;
13445;SDS011;6795;51.232;3.764;2022-12-10T11:40:09;173.03;;;60.23;;
13445;SDS011;6795;51.232;3.764;2022-12-10T11:42:54;176.63;;;57.53;;
13445;SDS011;6795;51.232;3.764;2022-12-10T11:45:33;172.33;;;60.30;;
13445;SDS011;6795;51.232;3.764;2022-12-10T11:48:10;165.63;;;58.87;;
13445;SDS011;6795;51.232;3.764;2022-12-10T11:50:48;179.53;;;63.70;;
13445;SDS011;6795;51.232;3.764;2022-12-10T11:56:14;176.77;;;62.03;;
13445;SDS011;6795;51.232;3.764;2022-12-10T11:58:57;177.47;;;62.50;;
13445;SDS011;6795;51.232;3.764;2022-12-10T12:01:36;155.80;;;59.20;;
13445;SDS011;6795;51.232;3.764;2022-12-10T12:04:22;155.03;;;58.00;;
13445;SDS011;6795;51.232;3.764;2022-12-10T12:07:12;171.43;;;59.63;;
13445;SDS011;6795;51.232;3.764;2022-12-10T12:09:58;145.10;;;54.60;;
13445;SDS011;6795;51.232;3.764;2022-12-10T12:12:40;157.47;;;56.30;;
13445;SDS011;6795;51.232;3.764;2022-12-10T12:15:25;162.77;;;59.47;;
13445;SDS011;6795;51.232;3.764;2022-12-10T12:17:57;143.40;;;55.83;;
13445;SDS011;6795;51.232;3.764;2022-12-10T12:20:32;152.20;;;56.60;;
13445;SDS011;6795;51.232;3.764;2022-12-10T12:23:06;142.47;;;50.40;;
13445;SDS011;6795;51.232;3.764;2022-12-10T12:25:45;133.93;;;53.23;;
13445;SDS011;6795;51.232;3.764;2022-12-10T12:28:21;131.13;;;50.63;;
13445;SDS011;6795;51.232;3.764;2022-12-10T12:30:58;133.07;;;51.73;;
13445;SDS011;6795;51.232;3.764;2022-12-10T12:33:32;124.93;;;51.70;;
13445;SDS011;6795;51.232;3.764;2022-12-10T12:36:08;132.67;;;52.57;;
13445;SDS011;6795;51.232;3.764;2022-12-10T12:38:41;126.67;;;52.90;;
13445;SDS011;6795;51.232;3.764;2022-12-10T12:41:13;120.73;;;51.13;;
13445;SDS011;6795;51.232;3.764;2022-12-10T12:43:46;121.57;;;51.70;;
13445;SDS011;6795;51.232;3.764;2022-12-10T12:46:24;124.83;;;52.50;;
13445;SDS011;6795;51.232;3.764;2022-12-10T12:48:58;119.93;;;53.33;;
13445;SDS011;6795;51.232;3.764;2022-12-10T12:51:32;108.83;;;47.63;;
13445;SDS011;6795;51.232;3.764;2022-12-10T12:54:05;111.83;;;47.87;;
13445;SDS011;6795;51.232;3.764;2022-12-10T12:56:40;110.47;;;50.33;;
13445;SDS011;6795;51.232;3.764;2022-12-10T12:59:26;125.90;;;51.50;;
13445;SDS011;6795;51.232;3.764;2022-12-10T13:02:12;113.77;;;50.03;;
13445;SDS011;6795;51.232;3.764;2022-12-10T13:04:48;114.07;;;50.47;;
13445;SDS011;6795;51.232;3.764;2022-12-10T13:07:32;117.63;;;54.30;;
13445;SDS011;6795;51.232;3.764;2022-12-10T13:13:05;117.27;;;48.70;;
13445;SDS011;6795;51.232;3.764;2022-12-10T13:15:49;121.43;;;51.90;;
13445;SDS011;6795;51.232;3.764;2022-12-10T13:18:21;127.17;;;52.43;;
13445;SDS011;6795;51.232;3.764;2022-12-10T13:21:25;117.50;;;51.13;;
13445;SDS011;6795;51.232;3.764;2022-12-10T13:24:07;124.03;;;52.23;;
13445;SDS011;6795;51.232;3.764;2022-12-10T13:26:40;116.77;;;49.83;;
13445;SDS011;6795;51.232;3.764;2022-12-10T13:29:30;123.37;;;52.60;;
13445;SDS011;6795;51.232;3.764;2022-12-10T13:32:16;113.63;;;52.33;;
13445;SDS011;6795;51.232;3.764;2022-12-10T13:34:48;132.33;;;52.70;;
13445;SDS011;6795;51.232;3.764;2022-12-10T13:37:59;114.97;;;52.57;;
13445;SDS011;6795;51.232;3.764;2022-12-10T13:40:40;121.27;;;55.10;;
13445;SDS011;6795;51.232;3.764;2022-12-10T13:43:28;124.33;;;53.07;;
13445;SDS011;6795;51.232;3.764;2022-12-10T13:46:22;115.73;;;51.60;;
13445;SDS011;6795;51.232;3.764;2022-12-10T13:48:53;114.90;;;53.20;;
13445;SDS011;6795;51.232;3.764;2022-12-10T13:51:33;121.40;;;53.80;;
13445;SDS011;6795;51.232;3.764;2022-12-10T13:54:14;131.47;;;56.40;;
13445;SDS011;6795;51.232;3.764;2022-12-10T13:56:52;128.73;;;55.23;;
13445;SDS011;6795;51.232;3.764;2022-12-10T13:59:29;130.87;;;55.63;;
13445;SDS011;6795;51.232;3.764;2022-12-10T14:02:19;118.97;;;55.90;;
13445;SDS011;6795;51.232;3.764;2022-12-10T14:05:07;126.67;;;58.37;;
13445;SDS011;6795;51.232;3.764;2022-12-10T14:07:53;124.77;;;58.60;;
13445;SDS011;6795;51.232;3.764;2022-12-10T14:10:26;127.60;;;57.67;;
13445;SDS011;6795;51.232;3.764;2022-12-10T14:12:58;133.47;;;60.83;;
13445;SDS011;6795;51.232;3.764;2022-12-10T14:15:27;127.47;;;54.23;;
13445;SDS011;6795;51.232;3.764;2022-12-10T14:17:59;132.37;;;56.97;;
13445;SDS011;6795;51.232;3.764;2022-12-10T14:20:30;130.67;;;56.93;;
13445;SDS011;6795;51.232;3.764;2022-12-10T14:23:04;134.70;;;57.40;;
13445;SDS011;6795;51.232;3.764;2022-12-10T14:26:11;126.33;;;57.60;;
13445;SDS011;6795;51.232;3.764;2022-12-10T14:28:41;132.00;;;56.43;;
13445;SDS011;6795;51.232;3.764;2022-12-10T14:31:12;131.30;;;58.20;;
13445;SDS011;6795;51.232;3.764;2022-12-10T14:33:44;137.10;;;61.40;;
13445;SDS011;6795;51.232;3.764;2022-12-10T14:36:14;138.17;;;59.73;;
13445;SDS011;6795;51.232;3.764;2022-12-10T14:38:48;143.17;;;63.40;;
13445;SDS011;6795;51.232;3.764;2022-12-10T14:41:18;140.27;;;62.47;;
13445;SDS011;6795;51.232;3.764;2022-12-10T14:43:49;143.07;;;61.40;;
13445;SDS011;6795;51.232;3.764;2022-12-10T14:46:20;138.37;;;60.47;;
13445;SDS011;6795;51.232;3.764;2022-12-10T14:48:51;134.37;;;60.20;;
13445;SDS011;6795;51.232;3.764;2022-12-10T14:51:21;133.13;;;58.47;;
13445;SDS011;6795;51.232;3.764;2022-12-10T14:53:54;138.40;;;61.70;;
13445;SDS011;6795;51.232;3.764;2022-12-10T14:56:24;131.37;;;57.37;;
13445;SDS011;6795;51.232;3.764;2022-12-10T14:58:57;139.00;;;60.93;;
13445;SDS011;6795;51.232;3.764;2022-12-10T15:01:31;136.80;;;61.73;;